Главная страница
METAR-TAF:

METAR-TAF

Аэропорты :

Веллингтон, Новая Зеландия

широта: 41-20S, долгота: 174-48E, высота над уровнем моря: 12 м

Текущие метеонаблюдения

Эта сводка был подготовлена 41 минут назад, в 20:00 UTC
Ветер 15 Узел от северно-северо-западный
Температура 11°C
Влажность 62%
Давление 1000 hPa
Видимость 10 км и более

METAR: NZWN 242000Z AUTO 34015KT 9999 NCD 11/04 Q1000 NOSIG

Время: 08:41 (20:41 UTC)

Прогноз

Эта сводка был подготовлена 3 часа и 37 минут назад, в 17:04 UTC
Прогноз действительный с 24-го 18 UTC до 25-го 18 UTC
Ветер 15 Узел от северно-северо-западный с порывами до 25 Узел
Видимость 10 км и более
Отдельные облака на высоте 2000 фута
небольшие ливневые дожди
временами
С 24-го 19 UTC до 24-го 22 UTC
Видимость: 7000 м
ливневые дожди
изменения
С 25-го 00 UTC до 25-го 02 UTC
Ветер 8 Узел от западно-северо-западный

TAF: NZWN 241704Z 2418/2518 34015G25KT 9999 -SHRA SCT020 TEMPO 2419/2422 7000 SHRA BECMG 2500/2502 30008KT

Метеонаблюдения и прогнозы для более 4000 аэропортов (сводки METAR и TAF).

Имеющиеся станции представлены на карте желтыми и красными точками.

Чтобы увидеть название станции, наведите на нее мышь.

Затем щелкните, чтобы увидеть метеонаблюдения и метеопрогнозы.

Управление картой: чтобы увеличить масштаб, щелкните зеленые кнопки с черным крестиком; чтобы уменьшить масштаб, щелкните зеленую кнопку с тире; для просмотра соседних карт щелкайте зеленые стрелки.


METAR-TAF: